Time;durP1;ratioP1;P1;durP2;ratioP2;P2;SDS_P1;SDS_P2;PMS_P1;PMS_P2;Temp;Humidity;BMP_temperature;BMP_pressure;BME280_temperature;BME280_humidity;BME280_pressure;Samples;Min_cycle;Max_cycle;Signal;HPM_P1;HPM_P2
2021/09/22 00:02:31;;;;;;;137.98;31.50;;;;;;;;;;5095501;28;20447;-64
2021/09/22 00:05:17;;;;;;;169.95;34.88;;;;;;;;;;5095182;28;20048;-63
2021/09/22 00:08:02;;;;;;;527.08;54.22;;;;;;;;;;5095666;28;20130;-63
2021/09/22 00:10:47;;;;;;;417.85;45.97;;;;;;;;;;5095410;28;20048;-64
2021/09/22 00:13:33;;;;;;;380.17;45.72;;;;;;;;;;5095099;28;20052;-64
2021/09/22 00:16:18;;;;;;;798.60;74.60;;;;;;;;;;5095492;28;20044;-63
2021/09/22 00:19:03;;;;;;;777.55;68.30;;;;;;;;;;5095427;28;20330;-63
2021/09/22 00:21:48;;;;;;;404.20;52.05;;;;;;;;;;5094948;28;20044;-64
2021/09/22 00:24:34;;;;;;;214.70;45.20;;;;;;;;;;5095088;28;20126;-63
2021/09/22 00:27:19;;;;;;;377.60;47.88;;;;;;;;;;5095181;28;20051;-63
2021/09/22 00:30:05;;;;;;;635.55;54.42;;;;;;;;;;5095038;28;20056;-63
2021/09/22 00:32:52;;;;;;;84.85;38.53;;;;;;;;;;5094985;28;20056;-64
2021/09/22 00:35:37;;;;;;;92.03;45.30;;;;;;;;;;5079474;28;20056;-63
2021/09/22 00:38:22;;;;;;;125.95;57.20;;;;;;;;;;5079605;28;20090;-63
2021/09/22 00:41:07;;;;;;;111.63;52.03;;;;;;;;;;5079556;28;20044;-63
2021/09/22 00:43:52;;;;;;;82.45;43.95;;;;;;;;;;5078047;28;20048;-64
2021/09/22 00:46:38;;;;;;;134.88;54.00;;;;;;;;;;5079484;28;20048;-64
2021/09/22 00:49:23;;;;;;;265.95;64.45;;;;;;;;;;5094852;28;20048;-63
2021/09/22 00:52:12;;;;;;;130.23;50.80;;;;;;;;;;5079348;28;20056;-64
2021/09/22 00:54:57;;;;;;;236.55;56.13;;;;;;;;;;5079078;28;20083;-64
2021/09/22 00:57:51;;;;;;;744.67;68.88;;;;;;;;;;5094507;28;20494;-64
2021/09/22 01:00:37;;;;;;;896.70;66.33;;;;;;;;;;5079307;28;20059;-64
2021/09/22 01:03:23;;;;;;;574.42;48.33;;;;;;;;;;5079170;28;20055;-64
2021/09/22 01:06:09;;;;;;;491.33;49.25;;;;;;;;;;5078965;28;20506;-64
2021/09/22 01:08:57;;;;;;;598.50;59.83;;;;;;;;;;5079348;28;20272;-64
2021/09/22 01:11:43;;;;;;;457.08;52.95;;;;;;;;;;5079533;28;20048;-63
2021/09/22 01:14:28;;;;;;;641.85;61.10;;;;;;;;;;5094158;28;20145;-63
2021/09/22 01:17:13;;;;;;;603.75;56.15;;;;;;;;;;5079040;28;20098;-63
2021/09/22 01:20:02;;;;;;;782.15;59.00;;;;;;;;;;5094126;28;20067;-63
2021/09/22 01:22:51;;;;;;;502.97;46.50;;;;;;;;;;5078896;28;20261;-63
2021/09/22 01:25:37;;;;;;;310.25;42.10;;;;;;;;;;5078554;28;20047;-63
2021/09/22 01:28:28;;;;;;;436.80;43.72;;;;;;;;;;5078519;28;20455;-63
2021/09/22 01:31:15;;;;;;;345.15;46.20;;;;;;;;;;5093985;28;20126;-64
2021/09/22 01:34:01;;;;;;;336.98;59.58;;;;;;;;;;5078435;28;20122;-64
2021/09/22 01:37:06;;;;;;;360.92;64.90;;;;;;;;;;5093656;28;20398;-63
2021/09/22 01:40:11;;;;;;;1026.97;115.38;;;;;;;;;;5093643;28;20059;-63
2021/09/22 01:42:57;;;;;;;912.65;101.07;;;;;;;;;;5078191;28;20047;-63
2021/09/22 01:45:44;;;;;;;646.28;82.40;;;;;;;;;;5078368;28;20048;-63
2021/09/22 01:48:29;;;;;;;1031.75;103.47;;;;;;;;;;5093689;28;20472;-63
2021/09/22 01:51:16;;;;;;;751.17;78.32;;;;;;;;;;5078151;28;20056;-63
2021/09/22 01:54:18;;;;;;;821.30;77.75;;;;;;;;;;5077723;28;20052;-63
2021/09/22 01:57:07;;;;;;;990.38;90.07;;;;;;;;;;5093404;28;20087;-63
2021/09/22 01:59:52;;;;;;;990.97;91.35;;;;;;;;;;5093226;28;20056;-63
2021/09/22 02:02:58;;;;;;;659.20;68.30;;;;;;;;;;5089475;28;20469;-63
2021/09/22 02:05:46;;;;;;;570.60;61.10;;;;;;;;;;5077752;28;20098;-63
2021/09/22 02:08:39;;;;;;;401.30;54.67;;;;;;;;;;5077993;28;20044;-63
2021/09/22 02:11:35;;;;;;;452.58;56.10;;;;;;;;;;5077739;28;20127;-63
2021/09/22 02:14:22;;;;;;;473.38;56.90;;;;;;;;;;5077436;28;20052;-63
2021/09/22 02:17:11;;;;;;;445.05;54.42;;;;;;;;;;5077784;28;20059;-63
2021/09/22 02:20:00;;;;;;;654.88;75.40;;;;;;;;;;5077671;28;20131;-63
2021/09/22 02:22:55;;;;;;;472.25;58.70;;;;;;;;;;5077284;28;20060;-63
2021/09/22 02:25:41;;;;;;;692.45;87.90;;;;;;;;;;5092748;28;20123;-63
2021/09/22 02:28:27;;;;;;;537.92;75.25;;;;;;;;;;5093120;28;20406;-64
2021/09/22 02:31:12;;;;;;;654.67;79.43;;;;;;;;;;5077123;28;20060;-63
2021/09/22 02:34:26;;;;;;;800.88;91.80;;;;;;;;;;5088692;28;20044;-63
2021/09/22 02:37:13;;;;;;;736.67;85.05;;;;;;;;;;5077348;28;20044;-64
2021/09/22 02:40:13;;;;;;;690.45;75.63;;;;;;;;;;5077436;28;20056;-63
2021/09/22 02:42:58;;;;;;;428.83;57.42;;;;;;;;;;5077147;28;20060;-64
2021/09/22 02:45:46;;;;;;;518.10;64.13;;;;;;;;;;5076849;28;20052;-63
2021/09/22 02:48:33;;;;;;;462.27;60.63;;;;;;;;;;5076857;28;20112;-63
2021/09/22 02:51:20;;;;;;;378.55;58.15;;;;;;;;;;5075961;28;20437;-63
2021/09/22 02:54:05;;;;;;;457.60;62.72;;;;;;;;;;5076714;28;20521;-63
2021/09/22 02:56:57;;;;;;;610.42;77.40;;;;;;;;;;5077111;28;20048;-63
2021/09/22 02:59:43;;;;;;;647.40;75.55;;;;;;;;;;5077093;28;20115;-63
2021/09/22 03:02:28;;;;;;;422.88;54.35;;;;;;;;;;5076746;28;20473;-64
2021/09/22 03:05:13;;;;;;;435.70;55.80;;;;;;;;;;5076416;28;20502;-63
2021/09/22 03:07:58;;;;;;;335.15;50.40;;;;;;;;;;5076900;28;20056;-63
2021/09/22 03:10:43;;;;;;;232.07;41.63;;;;;;;;;;5091902;28;20082;-64
2021/09/22 03:13:29;;;;;;;481.20;59.55;;;;;;;;;;5092096;28;20473;-64
2021/09/22 03:16:14;;;;;;;216.95;37.33;;;;;;;;;;5092259;28;20156;-65
2021/09/22 03:19:00;;;;;;;486.17;57.88;;;;;;;;;;5092036;28;20047;-64
2021/09/22 03:21:46;;;;;;;382.95;49.65;;;;;;;;;;5076863;28;20052;-64
2021/09/22 03:24:32;;;;;;;359.10;48.38;;;;;;;;;;5076596;28;20413;-64
2021/09/22 03:27:17;;;;;;;321.00;49.28;;;;;;;;;;5076743;28;20059;-64
2021/09/22 03:30:04;;;;;;;450.52;57.60;;;;;;;;;;5076918;28;20048;-65
2021/09/22 03:32:51;;;;;;;572.03;76.80;;;;;;;;;;5076426;28;20514;-64
2021/09/22 03:35:36;;;;;;;354.80;56.85;;;;;;;;;;5076306;28;20052;-64
2021/09/22 03:38:23;;;;;;;273.25;45.72;;;;;;;;;;5076791;28;20052;-65
2021/09/22 03:41:14;;;;;;;374.23;56.20;;;;;;;;;;5076541;28;20048;-64
2021/09/22 03:43:59;;;;;;;316.98;59.13;;;;;;;;;;5076257;28;20498;-65
2021/09/22 03:46:44;;;;;;;449.58;68.15;;;;;;;;;;5092013;28;20048;-65
2021/09/22 03:49:29;;;;;;;207.75;44.60;;;;;;;;;;5076594;28;20048;-65
2021/09/22 03:52:23;;;;;;;165.38;35.92;;;;;;;;;;5076317;28;20056;-65
2021/09/22 03:55:09;;;;;;;405.67;55.58;;;;;;;;;;5076104;28;20517;-65
2021/09/22 03:57:54;;;;;;;118.93;29.17;;;;;;;;;;5076458;28;20056;-65
2021/09/22 04:00:39;;;;;;;131.35;32.03;;;;;;;;;;5091530;28;20051;-64
2021/09/22 04:03:24;;;;;;;307.85;46.65;;;;;;;;;;5091708;28;20044;-64
2021/09/22 04:06:10;;;;;;;313.15;48.13;;;;;;;;;;5076466;28;20399;-65
2021/09/22 04:08:55;;;;;;;158.75;33.63;;;;;;;;;;5076275;28;20464;-64
2021/09/22 04:11:41;;;;;;;192.18;34.67;;;;;;;;;;5076409;28;20052;-65
2021/09/22 04:14:26;;;;;;;142.45;33.45;;;;;;;;;;5076135;28;20064;-64
2021/09/22 04:17:12;;;;;;;151.75;34.60;;;;;;;;;;5077131;28;20056;-64
2021/09/22 04:19:57;;;;;;;124.78;31.73;;;;;;;;;;5080057;28;20081;-64
2021/09/22 04:22:42;;;;;;;104.90;30.02;;;;;;;;;;5079628;28;20059;-64
2021/09/22 04:25:28;;;;;;;136.18;34.47;;;;;;;;;;5079535;28;20379;-64
2021/09/22 04:28:22;;;;;;;211.30;36.72;;;;;;;;;;5079938;28;20050;-65
2021/09/22 04:31:26;;;;;;;162.57;36.28;;;;;;;;;;5094890;28;20051;-65
2021/09/22 04:34:30;;;;;;;211.13;38.28;;;;;;;;;;5095050;28;20063;-65
2021/09/22 04:37:36;;;;;;;174.10;38.05;;;;;;;;;;5095030;28;20048;-65
2021/09/22 04:40:40;;;;;;;173.43;37.20;;;;;;;;;;5094687;28;20048;-64
2021/09/22 04:43:44;;;;;;;357.75;47.88;;;;;;;;;;5094524;28;20119;-65
2021/09/22 04:46:49;;;;;;;247.25;40.38;;;;;;;;;;5094993;28;20086;-65
2021/09/22 04:49:53;;;;;;;493.92;58.80;;;;;;;;;;5094801;28;20044;-64
2021/09/22 04:52:57;;;;;;;316.45;47.60;;;;;;;;;;5094677;28;20052;-64
2021/09/22 04:56:01;;;;;;;267.30;45.50;;;;;;;;;;5094692;28;20131;-64
2021/09/22 04:59:05;;;;;;;232.57;43.40;;;;;;;;;;5094375;28;20052;-64
2021/09/22 05:02:09;;;;;;;273.30;48.03;;;;;;;;;;5094241;28;20509;-64
2021/09/22 05:05:14;;;;;;;319.73;56.13;;;;;;;;;;5094121;28;20505;-64
2021/09/22 05:08:18;;;;;;;432.00;62.95;;;;;;;;;;5094394;28;20044;-65
2021/09/22 05:11:24;;;;;;;463.25;67.05;;;;;;;;;;5094121;28;20501;-64
2021/09/22 05:14:28;;;;;;;296.05;56.67;;;;;;;;;;5094090;28;20056;-64
2021/09/22 05:17:32;;;;;;;632.70;86.28;;;;;;;;;;5094208;28;20127;-64
2021/09/22 05:20:37;;;;;;;514.10;80.65;;;;;;;;;;5094282;28;20059;-64
2021/09/22 05:23:41;;;;;;;584.13;87.35;;;;;;;;;;5075513;28;20052;-64
2021/09/22 05:26:45;;;;;;;595.97;90.07;;;;;;;;;;5094105;28;20083;-65
2021/09/22 05:29:49;;;;;;;561.83;90.85;;;;;;;;;;5093170;28;20490;-65
2021/09/22 05:32:53;;;;;;;659.58;100.57;;;;;;;;;;5123763;22;20052;-62
2021/09/22 05:35:58;;;;;;;684.95;106.35;;;;;;;;;;5114154;28;20501;-61
2021/09/22 05:39:02;;;;;;;503.23;87.93;;;;;;;;;;5115085;28;20051;-62
2021/09/22 05:42:09;;;;;;;594.65;98.28;;;;;;;;;;5118669;28;20049;-62
2021/09/22 05:45:14;;;;;;;610.53;101.85;;;;;;;;;;5113920;28;20043;-62
2021/09/22 05:48:18;;;;;;;753.88;111.97;;;;;;;;;;5114042;28;20043;-61
2021/09/22 05:51:22;;;;;;;609.65;100.38;;;;;;;;;;5113966;28;20044;-61
2021/09/22 05:54:27;;;;;;;734.05;112.05;;;;;;;;;;5113564;28;20087;-61
2021/09/22 05:57:31;;;;;;;539.75;98.28;;;;;;;;;;5114035;28;20051;-62
2021/09/22 06:00:35;;;;;;;590.40;99.65;;;;;;;;;;5118803;28;20096;-61
2021/09/22 06:03:39;;;;;;;497.52;94.93;;;;;;;;;;5113200;28;20043;-61
2021/09/22 06:06:43;;;;;;;448.67;91.88;;;;;;;;;;5113919;28;20047;-61
2021/09/22 06:09:58;;;;;;;524.78;98.07;;;;;;;;;;5036054;28;20100;-61
2021/09/22 06:13:03;;;;;;;442.75;87.55;;;;;;;;;;5099977;28;20505;-62
2021/09/22 06:15:51;;;;;;;533.80;96.88;;;;;;;;;;5114489;28;20143;-62
2021/09/22 06:18:37;;;;;;;427.73;88.90;;;;;;;;;;5113531;28;20055;-61
2021/09/22 06:21:24;;;;;;;367.65;81.38;;;;;;;;;;5097912;28;20505;-61
2021/09/22 06:24:10;;;;;;;291.08;79.28;;;;;;;;;;5113073;28;20130;-62
2021/09/22 06:27:19;;;;;;;339.45;81.22;;;;;;;;;;5097897;28;20047;-61
2021/09/22 06:30:09;;;;;;;395.70;89.68;;;;;;;;;;5097796;28;20048;-61
2021/09/22 06:32:55;;;;;;;452.40;91.70;;;;;;;;;;5097378;28;20055;-61
2021/09/22 06:35:43;;;;;;;539.28;97.13;;;;;;;;;;5113056;28;20051;-61
2021/09/22 06:38:31;;;;;;;424.13;85.95;;;;;;;;;;5097523;28;20051;-61
2021/09/22 06:41:21;;;;;;;473.35;87.25;;;;;;;;;;5096441;28;20134;-61
2021/09/22 06:44:06;;;;;;;531.92;91.85;;;;;;;;;;5097292;28;20043;-61
2021/09/22 06:46:52;;;;;;;329.40;74.97;;;;;;;;;;5113925;28;20051;-61
2021/09/22 06:49:37;;;;;;;321.85;80.32;;;;;;;;;;5114437;28;20048;-62
2021/09/22 06:52:23;;;;;;;343.60;77.07;;;;;;;;;;5112805;28;20505;-62
2021/09/22 06:55:08;;;;;;;283.50;74.50;;;;;;;;;;5112529;28;20051;-61
2021/09/22 06:57:53;;;;;;;377.75;75.30;;;;;;;;;;5112631;28;20043;-61
2021/09/22 07:00:39;;;;;;;309.23;75.13;;;;;;;;;;5112537;28;20516;-61
2021/09/22 07:03:25;;;;;;;252.98;72.45;;;;;;;;;;5112523;28;20052;-62
2021/09/22 07:06:11;;;;;;;318.77;72.93;;;;;;;;;;5112453;28;20126;-62
2021/09/22 07:08:58;;;;;;;452.80;83.00;;;;;;;;;;5112729;28;20055;-61
2021/09/22 07:11:43;;;;;;;225.52;65.20;;;;;;;;;;5112874;28;20051;-61
2021/09/22 07:14:29;;;;;;;353.92;75.18;;;;;;;;;;5113117;28;20055;-62
2021/09/22 07:17:14;;;;;;;224.82;70.00;;;;;;;;;;5113599;28;20059;-63
2021/09/22 07:19:59;;;;;;;201.00;71.13;;;;;;;;;;5113252;28;20471;-62
2021/09/22 07:22:45;;;;;;;199.15;71.07;;;;;;;;;;5113204;28;20497;-62
2021/09/22 07:25:30;;;;;;;268.88;74.63;;;;;;;;;;5112302;28;20412;-62
2021/09/22 07:28:15;;;;;;;237.18;70.57;;;;;;;;;;5112506;28;20048;-61
2021/09/22 07:31:01;;;;;;;276.65;75.97;;;;;;;;;;5112232;28;20126;-61
2021/09/22 07:33:47;;;;;;;197.02;68.28;;;;;;;;;;5112207;28;20422;-61
2021/09/22 07:36:34;;;;;;;234.05;73.10;;;;;;;;;;5112433;28;20126;-61
2021/09/22 07:39:19;;;;;;;205.15;71.07;;;;;;;;;;5112194;28;20052;-62
2021/09/22 07:42:05;;;;;;;170.25;70.60;;;;;;;;;;5112322;28;20043;-61
2021/09/22 07:44:53;;;;;;;137.27;69.05;;;;;;;;;;5111975;28;20044;-62
2021/09/22 07:47:39;;;;;;;136.43;70.43;;;;;;;;;;5112621;28;20052;-61
2021/09/22 07:50:24;;;;;;;127.60;68.75;;;;;;;;;;5112489;28;20051;-62
2021/09/22 07:53:09;;;;;;;154.68;76.45;;;;;;;;;;5114897;28;20519;-61
2021/09/22 07:55:55;;;;;;;112.10;65.90;;;;;;;;;;5116239;28;20056;-62
2021/09/22 07:58:40;;;;;;;108.90;65.80;;;;;;;;;;5116360;28;20118;-62
2021/09/22 08:01:25;;;;;;;109.68;65.55;;;;;;;;;;5116099;28;20055;-62
2021/09/22 08:04:11;;;;;;;102.07;64.43;;;;;;;;;;5116225;28;20123;-62
2021/09/22 08:06:58;;;;;;;135.90;69.53;;;;;;;;;;5116534;28;20047;-62
2021/09/22 08:09:43;;;;;;;97.20;62.42;;;;;;;;;;5116033;28;20048;-62
2021/09/22 08:12:29;;;;;;;88.40;58.85;;;;;;;;;;5115675;28;20517;-62
2021/09/22 08:15:14;;;;;;;84.68;59.38;;;;;;;;;;5115778;28;20048;-62
2021/09/22 08:18:00;;;;;;;87.78;58.15;;;;;;;;;;5115902;28;20142;-61
2021/09/22 08:20:45;;;;;;;83.10;55.55;;;;;;;;;;5115661;28;20493;-62
2021/09/22 08:23:30;;;;;;;83.43;58.15;;;;;;;;;;5115543;28;20056;-61
2021/09/22 08:26:16;;;;;;;85.15;60.05;;;;;;;;;;5115626;28;20537;-62
2021/09/22 08:29:01;;;;;;;91.13;60.92;;;;;;;;;;5115476;28;20051;-62
2021/09/22 08:31:47;;;;;;;95.20;62.22;;;;;;;;;;5115334;28;20554;-62
2021/09/22 08:34:32;;;;;;;81.20;57.40;;;;;;;;;;5114925;28;20446;-62
2021/09/22 08:37:17;;;;;;;76.50;56.05;;;;;;;;;;5115310;28;20522;-61
2021/09/22 08:40:03;;;;;;;75.20;56.60;;;;;;;;;;5115256;28;20517;-63
2021/09/22 08:42:48;;;;;;;68.22;52.78;;;;;;;;;;5115269;28;20048;-62
2021/09/22 08:45:34;;;;;;;77.43;56.47;;;;;;;;;;5100089;28;20048;-62
2021/09/22 08:48:19;;;;;;;76.22;56.03;;;;;;;;;;5115129;28;20052;-62
2021/09/22 08:51:04;;;;;;;68.20;53.67;;;;;;;;;;5115265;28;20047;-61
2021/09/22 08:53:49;;;;;;;62.83;50.35;;;;;;;;;;5114871;28;20118;-62
2021/09/22 08:56:36;;;;;;;63.92;50.22;;;;;;;;;;5114905;28;20564;-62
2021/09/22 08:59:21;;;;;;;61.90;50.55;;;;;;;;;;5115324;28;20051;-62
2021/09/22 09:02:08;;;;;;;69.07;53.90;;;;;;;;;;5114850;28;20126;-61
2021/09/22 09:05:04;;;;;;;56.83;44.60;;;;;;;;;;5113946;28;20493;-61
2021/09/22 09:07:50;;;;;;;60.13;48.33;;;;;;;;;;5114739;28;20051;-62
2021/09/22 09:10:35;;;;;;;54.03;42.78;;;;;;;;;;5114771;28;20062;-62
2021/09/22 09:13:20;;;;;;;50.85;41.83;;;;;;;;;;5114526;28;20505;-62
2021/09/22 09:16:14;;;;;;;49.63;42.53;;;;;;;;;;5114755;28;20047;-61
2021/09/22 09:18:59;;;;;;;48.65;41.53;;;;;;;;;;5100145;28;20043;-62
2021/09/22 09:21:57;;;;;;;55.60;43.10;;;;;;;;;;5114464;28;20047;-62
2021/09/22 09:24:45;;;;;;;49.95;38.35;;;;;;;;;;5114276;28;20052;-63
2021/09/22 09:27:36;;;;;;;42.20;37.03;;;;;;;;;;5114514;28;20051;-62
2021/09/22 09:30:23;;;;;;;48.35;40.17;;;;;;;;;;5114590;28;20048;-62
2021/09/22 09:33:10;;;;;;;43.70;37.78;;;;;;;;;;5114124;28;20047;-63
2021/09/22 09:35:55;;;;;;;40.45;35.15;;;;;;;;;;5114426;28;20060;-63
2021/09/22 09:38:40;;;;;;;42.22;35.53;;;;;;;;;;5114417;28;20051;-61
2021/09/22 09:41:30;;;;;;;38.08;32.65;;;;;;;;;;5114198;28;20052;-62
2021/09/22 09:44:16;;;;;;;35.90;32.08;;;;;;;;;;5113771;28;20044;-62
2021/09/22 09:47:10;;;;;;;36.13;31.73;;;;;;;;;;5114336;28;20090;-62
2021/09/22 09:49:55;;;;;;;33.38;29.45;;;;;;;;;;5114077;28;20052;-62
2021/09/22 09:52:53;;;;;;;38.60;30.65;;;;;;;;;;5113750;28;20118;-61
2021/09/22 09:55:39;;;;;;;31.77;26.10;;;;;;;;;;5113752;28;20044;-61
2021/09/22 09:58:27;;;;;;;28.52;24.10;;;;;;;;;;5113885;28;20047;-62
2021/09/22 10:01:12;;;;;;;31.13;24.88;;;;;;;;;;5113603;28;20724;-62
2021/09/22 10:03:57;;;;;;;25.00;22.30;;;;;;;;;;5113499;28;20051;-63
2021/09/22 10:06:43;;;;;;;24.77;21.40;;;;;;;;;;5114050;28;20047;-63
2021/09/22 10:09:28;;;;;;;26.55;21.67;;;;;;;;;;5113627;28;20435;-62
2021/09/22 10:12:13;;;;;;;22.58;20.02;;;;;;;;;;5113652;28;20047;-62
2021/09/22 10:14:59;;;;;;;24.90;19.63;;;;;;;;;;5097885;28;20132;-62
2021/09/22 10:17:44;;;;;;;21.45;16.42;;;;;;;;;;5113349;28;20130;-62
2021/09/22 10:20:29;;;;;;;21.77;18.15;;;;;;;;;;5098390;28;20051;-62
2021/09/22 10:23:15;;;;;;;19.35;16.13;;;;;;;;;;5098034;28;20044;-62
2021/09/22 10:26:00;;;;;;;18.83;16.60;;;;;;;;;;5113213;28;20127;-62
2021/09/22 10:28:45;;;;;;;17.00;13.88;;;;;;;;;;5097931;28;20506;-62
2021/09/22 10:31:31;;;;;;;18.73;12.43;;;;;;;;;;5112869;28;20510;-62
2021/09/22 10:34:26;;;;;;;14.30;12.68;;;;;;;;;;5112856;28;20060;-62
2021/09/22 10:37:30;;;;;;;18.05;13.77;;;;;;;;;;5113171;28;20051;-62
2021/09/22 10:40:17;;;;;;;20.83;14.98;;;;;;;;;;5113108;28;20117;-62
2021/09/22 10:43:14;;;;;;;16.08;14.18;;;;;;;;;;5113129;28;20130;-63
2021/09/22 10:46:09;;;;;;;16.65;14.02;;;;;;;;;;5114055;28;20097;-63
2021/09/22 10:48:56;;;;;;;16.58;13.48;;;;;;;;;;5113727;28;20043;-63
2021/09/22 10:51:44;;;;;;;25.38;15.57;;;;;;;;;;5113499;28;20039;-63
2021/09/22 10:54:30;;;;;;;19.35;14.20;;;;;;;;;;5112890;28;20059;-62
2021/09/22 10:57:15;;;;;;;24.23;16.00;;;;;;;;;;5112682;28;20051;-62
2021/09/22 11:00:14;;;;;;;20.63;15.63;;;;;;;;;;5112826;28;20051;-62
2021/09/22 11:02:59;;;;;;;21.02;13.80;;;;;;;;;;5114526;28;20047;-62
2021/09/22 11:05:45;;;;;;;19.52;13.25;;;;;;;;;;5113798;28;20126;-63
2021/09/22 11:08:34;;;;;;;23.63;13.40;;;;;;;;;;5097657;28;20408;-62
2021/09/22 11:11:19;;;;;;;15.57;13.38;;;;;;;;;;5112585;28;20052;-62
2021/09/22 11:14:04;;;;;;;100.30;17.80;;;;;;;;;;5096899;28;20048;-62
2021/09/22 11:16:49;;;;;;;16.55;13.10;;;;;;;;;;5113700;28;20405;-63
2021/09/22 11:19:35;;;;;;;15.40;11.77;;;;;;;;;;5114128;28;20051;-62
2021/09/22 11:22:24;;;;;;;16.38;11.30;;;;;;;;;;5112316;28;20055;-63
2021/09/22 11:25:09;;;;;;;11.85;9.63;;;;;;;;;;5112043;28;20468;-62
2021/09/22 11:27:54;;;;;;;24.67;10.45;;;;;;;;;;5117169;28;20052;-62
2021/09/22 11:30:44;;;;;;;12.10;9.20;;;;;;;;;;5103804;28;20051;-62
2021/09/22 11:33:30;;;;;;;12.25;9.30;;;;;;;;;;5133664;22;20052;-62
2021/09/22 11:36:15;;;;;;;11.48;9.15;;;;;;;;;;5119260;28;20043;-62
2021/09/22 11:39:01;;;;;;;11.82;8.77;;;;;;;;;;5119005;28;20047;-62
2021/09/22 11:41:46;;;;;;;12.70;9.57;;;;;;;;;;5119238;28;20051;-62
2021/09/22 11:44:32;;;;;;;11.73;9.27;;;;;;;;;;5118835;28;20047;-62
2021/09/22 11:47:17;;;;;;;16.23;10.02;;;;;;;;;;5119052;28;20052;-62
2021/09/22 11:50:03;;;;;;;11.35;8.82;;;;;;;;;;5134250;28;20505;-63
2021/09/22 11:52:48;;;;;;;16.70;8.68;;;;;;;;;;5103513;28;20047;-63
2021/09/22 11:55:33;;;;;;;12.20;8.88;;;;;;;;;;5118696;28;20059;-62
2021/09/22 11:58:20;;;;;;;12.48;7.60;;;;;;;;;;5132416;28;20047;-63
2021/09/22 12:01:06;;;;;;;13.35;8.80;;;;;;;;;;5133369;28;20062;-63
2021/09/22 12:03:51;;;;;;;15.27;9.10;;;;;;;;;;5103587;28;20412;-63
2021/09/22 12:06:36;;;;;;;12.50;8.27;;;;;;;;;;5096344;28;20055;-63
2021/09/22 12:09:22;;;;;;;31.73;7.47;;;;;;;;;;5118951;28;20039;-63
2021/09/22 12:12:20;;;;;;;19.42;6.65;;;;;;;;;;5118809;28;20044;-63
2021/09/22 12:15:06;;;;;;;13.82;6.15;;;;;;;;;;5105329;28;20051;-62
2021/09/22 12:17:51;;;;;;;12.73;6.97;;;;;;;;;;5118828;28;20421;-63
2021/09/22 12:20:37;;;;;;;16.25;6.53;;;;;;;;;;5103312;28;20047;-62
2021/09/22 12:23:26;;;;;;;12.38;6.03;;;;;;;;;;5118761;28;20048;-62
2021/09/22 12:26:15;;;;;;;22.50;6.43;;;;;;;;;;5118826;28;20492;-63
2021/09/22 12:29:07;;;;;;;7.97;4.68;;;;;;;;;;5118584;28;20052;-62
2021/09/22 12:31:53;;;;;;;;;;;;;;;;;;5119115;28;20051;-63
2021/09/22 12:34:43;;;;;;;20.23;6.18;;;;;;;;;;5118430;28;19920;-62
2021/09/22 12:37:30;;;;;;;11.63;5.32;;;;;;;;;;5118596;28;20052;-62
2021/09/22 12:40:15;;;;;;;8.25;5.28;;;;;;;;;;5115390;28;20051;-62
2021/09/22 12:43:01;;;;;;;13.02;5.03;;;;;;;;;;5115337;28;20055;-62
2021/09/22 12:45:46;;;;;;;9.77;4.95;;;;;;;;;;5114949;28;20052;-62
2021/09/22 12:48:31;;;;;;;8.95;5.15;;;;;;;;;;5100112;28;20047;-62
2021/09/22 12:51:17;;;;;;;9.35;5.65;;;;;;;;;;5115634;28;20052;-63
2021/09/22 12:54:06;;;;;;;9.45;5.22;;;;;;;;;;5114771;28;20509;-63
2021/09/22 12:56:52;;;;;;;10.63;4.72;;;;;;;;;;5114950;28;20505;-63
2021/09/22 12:59:37;;;;;;;8.40;5.03;;;;;;;;;;5110622;28;20079;-63
2021/09/22 13:02:23;;;;;;;8.85;5.43;;;;;;;;;;5126714;28;20408;-63
2021/09/22 13:05:08;;;;;;;9.73;5.43;;;;;;;;;;5127387;28;20051;-63
2021/09/22 13:07:59;;;;;;;9.00;5.53;;;;;;;;;;5115704;28;20051;-62
2021/09/22 13:10:51;;;;;;;8.60;4.97;;;;;;;;;;5114685;28;20513;-63
2021/09/22 13:13:36;;;;;;;10.90;4.50;;;;;;;;;;5114540;28;20048;-63
2021/09/22 13:16:31;;;;;;;13.98;6.45;;;;;;;;;;5114726;28;20067;-62
2021/09/22 13:19:17;;;;;;;11.02;6.30;;;;;;;;;;5115123;28;20056;-63
2021/09/22 13:22:03;;;;;;;10.73;6.70;;;;;;;;;;5117635;28;20107;-63
2021/09/22 13:24:48;;;;;;;14.00;5.80;;;;;;;;;;5123485;28;20136;-63
2021/09/22 13:27:34;;;;;;;15.68;7.03;;;;;;;;;;5105576;28;20044;-64
2021/09/22 13:30:19;;;;;;;9.02;6.45;;;;;;;;;;5099233;28;20408;-63
2021/09/22 13:33:04;;;;;;;8.32;6.07;;;;;;;;;;5114278;28;20051;-63
2021/09/22 13:35:49;;;;;;;9.23;5.35;;;;;;;;;;5114170;28;20051;-63
2021/09/22 13:38:34;;;;;;;30.65;6.50;;;;;;;;;;5114449;28;20052;-63
2021/09/22 13:41:20;;;;;;;7.97;5.45;;;;;;;;;;5116690;28;20047;-62
2021/09/22 13:44:05;;;;;;;7.28;5.43;;;;;;;;;;5116077;28;20122;-63
2021/09/22 13:46:50;;;;;;;6.47;5.57;;;;;;;;;;5115291;28;20052;-62
2021/09/22 13:49:36;;;;;;;9.63;5.80;;;;;;;;;;5113671;28;20409;-62
2021/09/22 13:52:21;;;;;;;22.50;6.60;;;;;;;;;;5113785;28;20122;-63
2021/09/22 13:55:06;;;;;;;10.88;5.45;;;;;;;;;;5113829;28;20398;-62
2021/09/22 13:57:52;;;;;;;12.48;6.32;;;;;;;;;;5114323;28;20047;-62
2021/09/22 14:00:37;;;;;;;10.55;5.75;;;;;;;;;;5113741;28;20071;-64
2021/09/22 14:03:22;;;;;;;10.85;6.78;;;;;;;;;;5113689;28;20047;-62
2021/09/22 14:06:08;;;;;;;11.27;6.25;;;;;;;;;;5113824;28;20132;-63
2021/09/22 14:08:53;;;;;;;9.10;5.60;;;;;;;;;;5113651;28;20047;-63
2021/09/22 14:11:39;;;;;;;11.77;6.43;;;;;;;;;;5119252;28;20051;-63
2021/09/22 14:14:24;;;;;;;13.60;5.75;;;;;;;;;;5107216;28;20048;-64
2021/09/22 14:17:09;;;;;;;13.32;6.72;;;;;;;;;;5123545;28;20071;-63
2021/09/22 14:19:55;;;;;;;13.65;6.95;;;;;;;;;;5113600;28;20051;-63
2021/09/22 14:22:40;;;;;;;12.23;6.28;;;;;;;;;;5113405;28;20122;-63
2021/09/22 14:25:25;;;;;;;11.05;6.03;;;;;;;;;;5112941;28;20501;-63
2021/09/22 14:28:11;;;;;;;45.90;8.02;;;;;;;;;;5113468;28;20049;-63
2021/09/22 14:30:56;;;;;;;10.52;6.78;;;;;;;;;;5119053;28;20047;-63
2021/09/22 14:33:41;;;;;;;9.07;6.35;;;;;;;;;;5099871;28;20048;-62
2021/09/22 14:36:26;;;;;;;12.52;5.65;;;;;;;;;;5113173;28;20123;-63
2021/09/22 14:39:12;;;;;;;8.50;5.90;;;;;;;;;;5116150;28;20051;-62
2021/09/22 14:41:57;;;;;;;7.43;5.40;;;;;;;;;;5120650;28;20055;-63
2021/09/22 14:44:42;;;;;;;7.95;5.55;;;;;;;;;;5112856;28;20056;-63
2021/09/22 14:47:28;;;;;;;14.35;5.68;;;;;;;;;;5113240;28;20447;-62
2021/09/22 14:50:14;;;;;;;10.50;5.30;;;;;;;;;;5112993;28;20043;-63
2021/09/22 14:52:59;;;;;;;8.82;5.30;;;;;;;;;;5114546;28;20052;-63
2021/09/22 14:55:44;;;;;;;7.97;5.03;;;;;;;;;;5103819;28;20056;-63
2021/09/22 14:58:30;;;;;;;8.77;5.38;;;;;;;;;;5100836;28;20051;-63
2021/09/22 15:01:15;;;;;;;7.80;5.05;;;;;;;;;;5112244;28;20056;-63
2021/09/22 15:04:00;;;;;;;11.50;4.97;;;;;;;;;;5117566;28;20522;-62
2021/09/22 15:06:45;;;;;;;6.25;5.43;;;;;;;;;;5112746;28;20047;-63
2021/09/22 15:09:30;;;;;;;11.35;5.47;;;;;;;;;;5097223;28;20105;-63
2021/09/22 15:12:16;;;;;;;9.75;5.00;;;;;;;;;;5097494;28;20044;-63
2021/09/22 15:15:01;;;;;;;9.30;5.43;;;;;;;;;;5112461;28;20051;-62
2021/09/22 15:17:46;;;;;;;9.98;5.18;;;;;;;;;;5112507;28;20509;-63
2021/09/22 15:20:32;;;;;;;12.00;6.05;;;;;;;;;;5119448;28;20051;-63
2021/09/22 15:23:17;;;;;;;8.15;5.30;;;;;;;;;;5104536;28;20059;-63
2021/09/22 15:26:02;;;;;;;8.60;5.35;;;;;;;;;;5104676;28;20044;-64
2021/09/22 15:28:47;;;;;;;8.98;5.07;;;;;;;;;;5104509;28;20052;-64
2021/09/22 15:31:32;;;;;;;10.35;4.97;;;;;;;;;;5119408;28;20552;-63
2021/09/22 15:34:18;;;;;;;9.48;4.47;;;;;;;;;;5112169;28;20051;-62
2021/09/22 15:37:03;;;;;;;20.33;5.78;;;;;;;;;;5112596;28;20047;-62
2021/09/22 15:39:48;;;;;;;6.65;4.35;;;;;;;;;;5112468;28;20440;-62
2021/09/22 15:42:34;;;;;;;10.10;5.00;;;;;;;;;;5112271;28;20044;-63
2021/09/22 15:45:19;;;;;;;8.93;4.90;;;;;;;;;;5111931;28;20497;-64
2021/09/22 15:48:05;;;;;;;7.82;4.20;;;;;;;;;;5112548;28;20468;-62
2021/09/22 15:50:50;;;;;;;7.13;4.20;;;;;;;;;;5112404;28;20098;-62
2021/09/22 15:53:36;;;;;;;9.80;4.75;;;;;;;;;;5112047;28;20421;-63
2021/09/22 15:56:21;;;;;;;9.75;5.35;;;;;;;;;;5112151;28;20500;-62
2021/09/22 15:59:06;;;;;;;9.07;4.43;;;;;;;;;;5112174;28;20126;-62
2021/09/22 16:01:51;;;;;;;12.98;4.80;;;;;;;;;;5112297;28;20173;-62
2021/09/22 16:04:37;;;;;;;8.95;4.18;;;;;;;;;;5112021;28;20051;-63
2021/09/22 16:07:22;;;;;;;8.65;4.32;;;;;;;;;;5116750;28;20048;-62
2021/09/22 16:10:08;;;;;;;6.72;4.30;;;;;;;;;;5111944;28;20056;-64
2021/09/22 16:12:53;;;;;;;7.82;4.18;;;;;;;;;;5112500;28;20044;-62
2021/09/22 16:15:38;;;;;;;9.55;4.10;;;;;;;;;;5115582;28;20421;-62
2021/09/22 16:18:24;;;;;;;6.53;4.13;;;;;;;;;;5113510;28;20051;-63
2021/09/22 16:21:09;;;;;;;8.63;4.50;;;;;;;;;;5114355;28;20056;-63